createdAt,value
2019-05-21T00:04:45.279Z,4.60
2019-05-21T00:09:49.873Z,4.20
2019-05-21T00:14:55.559Z,4.37
2019-05-21T00:20:00.159Z,5.13
2019-05-21T00:25:06.303Z,4.80
2019-05-21T00:30:47.396Z,4.43
2019-05-21T00:36:29.998Z,4.70
2019-05-21T00:42:01.988Z,4.87
2019-05-21T00:47:09.525Z,5.07
2019-05-21T00:52:14.162Z,5.37
2019-05-21T00:57:18.969Z,5.37
2019-05-21T01:02:24.770Z,5.43
2019-05-21T01:07:29.385Z,6.03
2019-05-21T01:12:33.747Z,5.30
2019-05-21T01:17:38.110Z,6.13
2019-05-21T01:22:42.490Z,6.07
2019-05-21T01:27:46.849Z,6.03
2019-05-21T01:32:51.251Z,5.40
2019-05-21T01:37:55.571Z,5.50
2019-05-21T01:43:03.207Z,6.73
2019-05-21T01:48:06.026Z,6.17
2019-05-21T01:53:10.368Z,5.73
2019-05-21T01:58:14.733Z,6.33
2019-05-21T02:03:19.132Z,6.13
2019-05-21T02:08:23.485Z,6.37
2019-05-21T02:13:27.798Z,5.67
2019-05-21T02:18:33.014Z,6.00
2019-05-21T02:23:37.397Z,6.07
2019-05-21T02:28:41.727Z,5.83
2019-05-21T02:33:46.089Z,4.90
2019-05-21T02:38:50.596Z,5.43
2019-05-21T02:43:54.960Z,5.37
2019-05-21T02:48:59.345Z,5.30
2019-05-21T02:54:03.692Z,5.90
2019-05-21T02:59:08.076Z,5.50
2019-05-21T03:04:12.397Z,5.93
2019-05-21T03:09:16.754Z,6.07
2019-05-21T03:14:21.135Z,6.40
2019-05-21T03:19:25.499Z,6.33
2019-05-21T03:24:29.846Z,6.20
2019-05-21T03:29:34.244Z,5.83
2019-05-21T03:34:38.594Z,5.90
2019-05-21T03:39:42.923Z,5.57
2019-05-21T03:44:59.176Z,6.20
2019-05-21T03:49:53.602Z,6.10
2019-05-21T03:55:02.677Z,5.90
2019-05-21T04:00:06.372Z,5.97
2019-05-21T04:05:10.895Z,6.00
2019-05-21T04:10:15.334Z,5.90
2019-05-21T04:15:25.126Z,6.23
2019-05-21T04:20:29.466Z,5.60
2019-05-21T04:25:33.809Z,5.80
2019-05-21T04:30:38.154Z,5.97
2019-05-21T04:35:42.490Z,5.80
2019-05-21T04:40:46.843Z,6.70
2019-05-21T04:45:52.526Z,7.70
2019-05-21T04:51:00.981Z,6.60
2019-05-21T04:56:07.996Z,6.63
2019-05-21T05:01:12.702Z,6.43
2019-05-21T05:06:17.125Z,7.07
2019-05-21T05:11:21.519Z,6.60
2019-05-21T05:16:25.864Z,6.70
2019-05-21T05:21:30.257Z,6.73
2019-05-21T05:26:34.700Z,7.10
2019-05-21T05:31:39.048Z,6.93
2019-05-21T05:36:43.362Z,6.97
2019-05-21T05:41:47.721Z,7.53
2019-05-21T05:46:52.069Z,7.80
2019-05-21T05:51:56.441Z,7.73
2019-05-21T05:57:00.790Z,7.00
2019-05-21T06:02:05.417Z,6.20
2019-05-21T06:07:09.800Z,6.17
2019-05-21T06:12:14.142Z,6.77
2019-05-21T06:17:18.676Z,6.50
2019-05-21T06:22:23.694Z,6.43
2019-05-21T06:27:28.043Z,5.50
2019-05-21T06:32:32.417Z,5.60
2019-05-21T06:37:36.793Z,5.90
2019-05-21T06:42:41.168Z,5.17
2019-05-21T06:47:45.541Z,5.53
2019-05-21T06:52:49.915Z,5.67
2019-05-21T06:57:54.310Z,4.67
2019-05-21T07:02:58.676Z,3.90
2019-05-21T07:08:03.033Z,3.77
2019-05-21T07:13:07.373Z,3.47
2019-05-21T07:18:11.746Z,3.70
2019-05-21T07:23:16.124Z,3.57
2019-05-21T07:28:20.551Z,3.50
2019-05-21T07:33:24.933Z,3.60
2019-05-21T07:38:29.310Z,3.40
2019-05-21T07:43:33.837Z,3.17
2019-05-21T07:48:38.349Z,2.90
2019-05-21T07:53:42.721Z,2.97
2019-05-21T07:58:47.106Z,2.90
2019-05-21T08:03:51.469Z,2.70
2019-05-21T08:09:11.551Z,3.00
2019-05-21T08:14:02.919Z,2.90
2019-05-21T08:19:07.285Z,3.23
2019-05-21T08:24:11.649Z,2.80
2019-05-21T08:29:16.029Z,2.57
2019-05-21T08:34:20.397Z,2.43
2019-05-21T08:39:28.710Z,2.43
2019-05-21T08:44:30.830Z,2.50
2019-05-21T08:49:36.170Z,2.10
2019-05-21T08:54:50.381Z,2.27
2019-05-21T08:59:54.770Z,2.07
2019-05-21T09:04:59.138Z,2.00
2019-05-21T09:10:04.847Z,2.10
2019-05-21T09:15:09.790Z,2.10
2019-05-21T09:20:16.319Z,2.10
2019-05-21T09:25:20.683Z,1.70
2019-05-21T09:30:25.196Z,2.10
2019-05-21T09:35:29.603Z,1.90
2019-05-21T09:40:34.024Z,1.73
2019-05-21T09:45:38.457Z,2.08
2019-05-21T09:50:42.856Z,1.90
2019-05-21T09:55:48.278Z,1.90
2019-05-21T10:01:10.625Z,1.93
2019-05-21T10:06:16.134Z,1.90
2019-05-21T10:11:20.505Z,1.95
2019-05-21T10:16:24.972Z,1.98
2019-05-21T10:21:29.316Z,1.80
2019-05-21T10:26:34.222Z,1.90
2019-05-21T10:31:38.655Z,1.70
2019-05-21T10:36:43.131Z,1.50
2019-05-21T10:41:47.506Z,1.50
2019-05-21T10:46:51.977Z,1.80
2019-05-21T10:51:56.343Z,1.37
2019-05-21T10:57:00.731Z,1.57
2019-05-21T11:02:06.869Z,1.52
2019-05-21T11:07:13.133Z,1.60
2019-05-21T11:12:17.630Z,1.50
2019-05-21T11:17:22.141Z,1.67
2019-05-21T11:22:26.511Z,1.52
2019-05-21T11:27:30.882Z,1.95
2019-05-21T11:32:35.338Z,1.67
2019-05-21T11:37:39.719Z,1.50
2019-05-21T11:42:44.317Z,1.52
2019-05-21T11:47:48.812Z,1.60
2019-05-21T11:52:53.410Z,1.47
2019-05-21T11:57:58.867Z,1.50
2019-05-21T12:03:03.438Z,1.50
2019-05-21T12:08:07.943Z,1.47
2019-05-21T12:13:12.399Z,1.60
2019-05-21T12:18:16.863Z,1.50
2019-05-21T12:23:21.242Z,1.40
2019-05-21T12:28:25.626Z,1.60
2019-05-21T12:33:29.993Z,1.30
2019-05-21T12:38:34.370Z,1.85
2019-05-21T12:43:38.681Z,1.55
2019-05-21T12:48:43.018Z,1.50
2019-05-21T12:53:47.501Z,1.50
2019-05-21T12:58:51.835Z,1.52
2019-05-21T13:03:56.261Z,1.70
2019-05-21T13:09:00.785Z,1.77
2019-05-21T13:14:06.868Z,1.67
2019-05-21T13:19:11.484Z,1.82
2019-05-21T13:24:15.858Z,1.90
2019-05-21T13:29:20.205Z,1.50
2019-05-21T13:34:24.551Z,1.40
2019-05-21T13:39:28.929Z,1.65
2019-05-21T13:44:33.416Z,1.60
2019-05-21T13:49:37.737Z,1.70
2019-05-21T13:54:42.095Z,1.60
2019-05-21T13:59:46.677Z,1.70
2019-05-21T14:04:51.066Z,1.57
2019-05-21T14:10:13.539Z,1.60
2019-05-21T14:15:01.500Z,1.60
2019-05-21T14:20:08.589Z,1.50
2019-05-21T14:25:13.117Z,1.52
2019-05-21T14:30:17.752Z,1.87
2019-05-21T14:35:22.142Z,1.50
2019-05-21T14:40:32.523Z,1.62
2019-05-21T14:45:34.498Z,1.60
2019-05-21T14:50:39.083Z,1.50
2019-05-21T14:55:43.644Z,1.60
2019-05-21T15:00:47.992Z,1.60
2019-05-21T15:05:52.392Z,1.60
2019-05-21T15:10:56.795Z,1.80
2019-05-21T15:16:01.177Z,1.82
2019-05-21T15:21:17.656Z,1.80
2019-05-21T15:26:21.999Z,1.60
2019-05-21T15:31:26.526Z,2.00
2019-05-21T15:36:31.314Z,2.12
2019-05-21T15:41:35.678Z,2.22
2019-05-21T15:46:49.878Z,1.85
2019-05-21T15:51:46.227Z,2.05
2019-05-21T15:56:50.705Z,1.82
2019-05-21T16:01:55.249Z,1.92
2019-05-21T16:06:59.615Z,1.60
2019-05-21T16:12:04.014Z,1.77
2019-05-21T16:17:08.387Z,1.90
2019-05-21T16:22:12.834Z,1.92
2019-05-21T16:27:17.198Z,2.00
2019-05-21T16:32:22.497Z,1.90
2019-05-21T16:37:26.848Z,1.92
2019-05-21T16:42:31.179Z,2.17
2019-05-21T16:47:45.911Z,2.12
2019-05-21T16:52:42.683Z,2.03
2019-05-21T16:57:48.106Z,1.80
2019-05-21T17:02:52.601Z,1.55
2019-05-21T17:07:56.973Z,1.95
2019-05-21T17:13:01.314Z,1.95
2019-05-21T17:18:06.846Z,2.00
2019-05-21T17:23:11.224Z,1.92
2019-05-21T17:28:15.609Z,2.10
2019-05-21T17:33:19.954Z,2.00
2019-05-21T17:38:24.759Z,1.60
2019-05-21T17:43:30.784Z,1.90
2019-05-21T17:48:35.183Z,1.65
2019-05-21T17:53:39.789Z,2.10
2019-05-21T17:58:44.155Z,1.70
2019-05-21T18:03:49.751Z,2.12
2019-05-21T18:08:54.398Z,1.80
2019-05-21T18:14:00.237Z,2.27
2019-05-21T18:19:08.414Z,2.20
2019-05-21T18:24:12.147Z,2.10
2019-05-21T18:29:16.556Z,3.87
2019-05-21T18:34:21.153Z,2.10
2019-05-21T18:39:25.678Z,2.30
2019-05-21T18:44:30.668Z,1.80
2019-05-21T18:49:35.243Z,2.30
2019-05-21T18:54:39.680Z,2.20
2019-05-21T18:59:44.086Z,1.95
2019-05-21T19:04:48.457Z,2.10
2019-05-21T19:09:52.937Z,2.10
2019-05-21T19:14:57.556Z,2.40
2019-05-21T19:20:02.039Z,2.40
2019-05-21T19:25:08.511Z,2.33
2019-05-21T19:30:13.875Z,2.75
2019-05-21T19:35:18.320Z,2.83
2019-05-21T19:40:22.909Z,2.83
2019-05-21T19:45:27.367Z,3.10
2019-05-21T19:50:32.302Z,3.40
2019-05-21T19:55:38.680Z,4.67
2019-05-21T20:00:44.853Z,6.13
2019-05-21T20:05:49.641Z,6.70
2019-05-21T20:10:54.236Z,7.90
2019-05-21T20:15:59.559Z,9.30
2019-05-21T20:21:04.826Z,9.93
2019-05-21T20:26:12.452Z,10.63
2019-05-21T20:31:17.394Z,10.90
2019-05-21T20:36:22.374Z,9.20
2019-05-21T20:41:27.757Z,8.93
2019-05-21T20:46:32.357Z,9.43
2019-05-21T20:51:37.566Z,8.97
2019-05-21T20:56:41.939Z,9.10
2019-05-21T21:01:46.688Z,8.57
2019-05-21T21:06:51.497Z,9.30
2019-05-21T21:11:56.315Z,9.73
2019-05-21T21:17:00.692Z,8.70
2019-05-21T21:22:05.212Z,10.27
2019-05-21T21:27:09.726Z,10.63
2019-05-21T21:32:14.110Z,10.30
2019-05-21T21:37:18.525Z,10.67
2019-05-21T21:42:22.899Z,10.73
2019-05-21T21:47:28.017Z,11.20
2019-05-21T21:52:33.589Z,11.60
2019-05-21T21:57:38.195Z,11.53
2019-05-21T22:02:42.567Z,12.27
2019-05-21T22:07:47.497Z,11.80
2019-05-21T22:12:51.859Z,12.27
2019-05-21T22:17:56.401Z,13.20
2019-05-21T22:23:01.659Z,18.43
2019-05-21T22:28:07.178Z,15.20
2019-05-21T22:33:12.026Z,14.57
2019-05-21T22:38:16.522Z,14.53
2019-05-21T22:43:20.898Z,14.70
2019-05-21T22:48:25.360Z,15.13
2019-05-21T22:53:29.738Z,13.53
2019-05-21T22:58:34.109Z,14.63
2019-05-21T23:03:39.513Z,15.23
2019-05-21T23:08:43.940Z,15.27
2019-05-21T23:13:48.309Z,15.57
2019-05-21T23:18:54.499Z,16.57
2019-05-21T23:24:17.948Z,14.80
2019-05-21T23:29:22.787Z,14.60
2019-05-21T23:34:27.219Z,15.37
2019-05-21T23:39:32.229Z,15.60
2019-05-21T23:44:38.055Z,15.53
2019-05-21T23:49:42.418Z,14.77
2019-05-21T23:54:47.264Z,15.87
2019-05-21T23:59:51.697Z,16.75
